Terminal Aerodrome Forecast
Issued by NWS

Home | Current Version | Previous Version | Text Only | Print | Product List | Glossary On
Versions: 1 2 3 4 5 6 7 8 9 10 11 12 13 14
000
FTUS46 KPDT 201139
TAFBDN
TAF
KBDN 201139Z 2012/2112 14009KT P6SM SCT060 OVC080
     FM201500 16012KT 3SM -SN BR BKN015 OVC035
     FM202000 17008KT P6SM VCSH SCT012 BKN029 OVC070
     FM210200 19006KT P6SM BKN035 BKN070=

USA.gov is the U.S. government's official web portal to all federal, state and local government web resources and services.